Hastings Natural History Reservation, California Weather observations

Data are for 10 minute period ending at time listed.
 Day   Time   Solar   Ave.   Ave.  Ave.  Vector  Max.   Baro.   Total    
  of    of     Rad.   Air    Rel.  Wind   Wind   Wind  Press.  Precip.   
Year   Day            Temp.  Hum.  Speed  Dir.   Gust                    
2015   (PST)  Kw/m2    F      %     mph   deg.    mph    mb.     in.     
-------------------------------------------------------------------------
 115    3:50   0.00   48.4    95    0.6    75     1.6   950.6    0.00 
 115    4:00   0.00   48.4    96    0.5   183     1.7   950.5    0.01 
 115    4:10   0.00   48.6    96    0.0     0     0.0   950.4    0.00 
 115    4:20   0.00   48.7    96    0.3   115     1.2   950.2    0.00 
 115    4:30   0.00   48.9    97    0.9    20     2.6   950.0    0.00 
 115    4:40   0.00   48.7    98    0.8   230     2.6   950.0    0.01 
 115    4:50   0.00   48.8    98    0.1   254     1.2   950.1    0.01 
 115    5:00   0.00   49.1    98    0.3   210     1.1   950.2    0.02 
 115    5:10   0.00   49.3    98    0.4   170     1.9   950.2    0.03 
 115    5:20   0.00   49.7    99    1.5   227     2.9   950.2    0.02 
 115    5:30   0.00   50.1   100    0.8   243     3.5   950.0    0.03 
 115    5:40   0.00   50.5   100    0.6   229     2.5   950.0    0.02 
 115    5:50   0.00   50.7   100    1.1   246     3.5   949.9    0.00 
 115    6:00   0.00   50.6   100    2.4   234     4.7   950.0    0.02 
 115    6:10   0.00   50.7   100    1.7   227     4.8   949.9    0.03 
 115    6:20   0.00   50.7   100    1.1   228     3.5   949.9    0.02 
 115    6:30   0.00   51.1   100    1.0    14     4.5   949.9    0.03 
 115    6:40   0.00   51.3   100    1.4     7     4.7   949.9    0.04 
 115    6:50   0.00   51.4   100    1.8    18     5.6   950.0    0.04 
 115    7:00   0.00   51.4   100    1.6   337     3.9   950.0    0.03 
 115    7:10   0.00   51.3   100    2.3   243    13.2   950.1    0.04 
 115    7:20   0.00   51.0   100    3.6   264    11.6   950.3    0.03 
 115    7:30   0.01   50.5   100    3.0   303     7.9   950.4    0.00 
 115    7:40   0.01   50.3   100    2.8   234    10.6   950.5    0.01 
 115    7:50   0.01   50.1   100    4.0   246    18.0   950.5    0.01 
 115    8:00   0.02   50.0   100    3.6   267    15.4   950.6    0.00 
 115    8:10   0.03   49.7   100    3.9   265    14.8   950.8    0.00 
 115    8:20   0.05   49.5   100    2.4   354     8.1   950.9    0.00 
 115    8:30   0.05   49.3   100    2.1   285     8.9   950.8    0.00 
 115    8:40   0.05   49.5   100    2.1   321     8.1   950.9    0.00 
 115    8:50   0.07   49.2   100    2.3   317     7.5   951.0    0.01 
 115    9:00   0.08   49.3   100    3.1   282     9.0   951.1    0.00 
 115    9:10   0.09   49.3   100    2.7   254     8.7   951.0    0.01 
 115    9:20   0.16   49.4   100    2.2   306     9.9   951.0    0.01 
 115    9:30   0.18   49.5   100    2.9   258     9.6   951.0    0.00 
 115    9:40   0.20   49.5   100    3.6   252     8.5   951.1    0.00 
 115    9:50   0.20   49.3   100    4.3   252    14.5   951.2    0.00 
 115   10:00   0.24   49.7   100    3.4   275    11.0   951.3    0.00 
 115   10:10   0.54   50.3    99    2.2   296     8.9   951.4    0.00 
 115   10:20   0.40   51.7    96    2.7   264     9.7   951.5    0.00 
 115   10:30   0.24   50.6    93    2.3   269     5.8   951.5    0.00 
 115   10:40   0.33   51.2    93    1.4   315     5.2   951.6    0.00 
 115   10:50   0.35   51.4    91    1.7   280     7.0   951.7    0.00 
 115   11:00   0.57   52.2    89    2.2   303     6.8   951.6    0.00 
 115   11:10   0.41   52.6    88    2.8   288     8.1   951.6    0.00 
 115   11:20   0.62   52.8    84    2.7   251     8.6   951.7    0.00 
 115   11:30   0.74   53.4    82    3.7   277     9.1   951.8    0.00 
 115   11:40   0.41   52.6    81    2.9   258     9.0   951.8    0.00 
 115   11:50   0.66   53.2    81    2.8   274    10.4   952.0    0.00 
 115   12:00   0.41   53.5    79    2.7   308     9.3   952.1    0.00 
 115   12:10   0.74   53.5    79    3.4   269     7.8   951.9    0.00 
 115   12:20   0.59   53.9    79    2.9   305     7.9   951.9    0.00 
 115   12:30   0.81   54.1    76    2.1   289     6.1   951.8    0.00 
 115   12:40   0.82   54.6    73    4.2   264    12.1   951.8    0.00 
 115   12:50   0.86   54.2    71    3.7   311    11.4   951.9    0.00 
 115   13:00   0.85   55.8    69    2.5   308     9.6   951.8    0.00 
 115   13:10   0.90   55.4    68    3.7   347    11.2   951.7    0.00 
 115   13:20   0.85   55.0    68    4.1   307    13.2   951.7    0.00 
 115   13:30   0.91   55.5    69    2.8   263    11.5   951.6    0.00 
 115   13:40   0.92   55.5    68    4.2   258    11.2   951.6    0.00 
 115   13:50   0.90   55.1    65    3.9   261    15.1   951.7    0.00 
 115   14:00   0.89   54.9    66    4.8   252    11.8   951.8    0.00 
 115   14:10   0.91   54.8    66    5.6   248    13.4   951.9    0.00 
 115   14:20   0.90   55.1    65    5.4   250    13.1   951.9    0.00 
 115   14:30   0.89   55.9    63    4.5   262    13.2   951.9    0.00 
 115   14:40   0.83   55.5    62    5.6   257    11.5   951.9    0.00 
 115   14:50   0.87   54.9    64    4.8   261    15.8   952.0    0.00 
 115   15:00   0.84   55.2    63    5.9   254    14.6   952.0    0.00 
 115   15:10   0.84   53.9    63    6.3   242    14.1   952.1    0.00 
 115   15:20   0.86   55.3    61    2.8   272    10.0   952.0    0.00 
 115   15:30   0.86   55.6    60    5.4   247    15.3   952.0    0.00 
 115   15:40   0.76   55.3    61    5.6   249    15.2   952.0    0.00 
 115   15:50   0.78   54.5    62    4.9   253    14.6   951.8    0.00 
 115   16:00   0.71   55.5    60    3.4   283    11.1   951.9    0.00 
 115   16:10   0.71   55.3    60    3.3   271    10.2   951.9    0.00 
 115   16:20   0.67   54.8    58    5.9   246    14.1   951.9    0.00 
 115   16:30   0.64   54.1    59    5.8   251    12.7   952.0    0.00 
 115   16:40   0.62   54.2    60    5.0   264    12.0   952.1    0.00 
 115   16:50   0.59   53.7    60    4.9   255    12.6   952.2    0.00 
 115   17:00   0.55   54.1    61    4.3   257    11.5   952.3    0.00 
 115   17:10   0.54   53.3    61    7.0   244    16.3   952.5    0.00 
 115   17:20   0.50   52.8    61    5.8   249    15.1   952.6    0.00 
 115   17:30   0.52   52.8    62    6.4   252    13.4   952.7    0.00 
 115   17:40   0.51   52.2    64    7.0   243    13.2   952.7    0.00 
 115   17:50   0.48   52.2    64    6.2   245    18.8   952.8    0.00 
 115   18:00   0.34   51.6    67    5.2   253    11.0   953.0    0.00 
 115   18:10   0.20   51.3    68    4.1   251    13.0   953.0    0.00 
 115   18:20   0.08   49.6    72    3.7   256    10.8   953.1    0.00 
 115   18:30   0.09   48.9    73    3.2   258     9.1   953.2    0.00 
 115   18:40   0.07   48.9    74    2.8   327     8.9   953.2    0.00 
 115   18:50   0.05   48.5    75    2.1     5     6.5   953.4    0.00 
 115   19:00   0.04   48.2    75    3.1   293     8.8   953.5    0.00 
 115   19:10   0.04   48.3    76    2.5   277     6.0   953.6    0.00 
 115   19:20   0.03   48.3    76    2.3   288    12.0   953.6    0.00 
 115   19:30   0.02   48.1    76    2.0   338     6.6   953.7    0.00 
 115   19:40   0.01   48.0    77    2.6   273     7.3   953.8    0.00 
 115   19:50   0.00   47.7    79    1.5   333     4.7   953.8    0.00 
 115   20:00   0.00   47.4    79    4.0   249    11.0   953.9    0.00 
 115   20:10   0.00   47.1    80    2.1   250     6.9   954.0    0.00 
 115   20:20   0.00   47.0    80    2.8   243     8.0   954.1    0.00 
 115   20:30   0.00   46.6    81    2.0   252     6.1   954.2    0.00 
 115   20:40   0.00   46.5    82    2.7   251     6.6   954.3    0.00 
 115   20:50   0.00   46.5    82    1.7   272     4.1   954.6    0.00 
 115   21:00   0.00   46.4    81    3.4   249     8.9   954.8    0.00 
 115   21:10   0.00   45.9    81    3.6   248     8.1   954.8    0.00 
 115   21:20   0.00   45.8    82    3.3   255     6.9   954.8    0.00 
 115   21:30   0.00   45.7    82    2.5   253     6.8   954.9    0.00 
 115   21:40   0.00   45.6    82    2.6   250     6.9   955.0    0.00 
 115   21:50   0.00   45.4    82    3.2   249     8.0   955.0    0.00 
 115   22:00   0.00   45.4    82    3.0   246     5.9   955.1    0.00 
 115   22:10   0.00   45.5    82    1.5   266     4.5   955.2    0.00 
 115   22:20   0.00   45.5    82    1.6   271     4.0   955.3    0.00 
 115   22:30   0.00   45.5    83    2.5   249     6.1   955.2    0.00 
 115   22:40   0.00   45.3    83    3.0   241     8.0   955.3    0.00 
 115   22:50   0.00   45.3    83    2.9   244     5.6   955.4    0.00 
 115   23:00   0.00   45.3    83    1.2   267     5.2   955.4    0.00 
 115   23:10   0.00   45.4    83    0.5   264     3.1   955.3    0.00 
 115   23:20   0.00   45.4    84    1.2   302     4.2   955.3    0.00 
 115   23:30   0.00   45.5    84    1.5   268     5.6   955.4    0.00 
 115   23:40   0.00   45.6    84    0.8   231     2.9   955.4    0.00 
 115   23:50   0.00   45.6    83    2.3   253     7.9   955.4    0.00 
 116    0:00   0.00   45.6    83    1.1   254     5.0   955.4    0.00 
 116    0:10   0.00   45.4    83    2.8   254     7.9   955.2    0.00 
 116    0:20   0.00   45.5    83    1.4   278     4.5   955.2    0.00 
 116    0:30   0.00   45.5    82    2.5   256     7.5   955.3    0.00 
 116    0:40   0.00   45.5    82    1.2   264     3.8   955.2    0.00 
 116    0:50   0.00   45.4    82    1.4   260     7.2   955.2    0.00 
 116    1:00   0.00   45.4    82    1.0   292     3.7   955.2    0.00 
 116    1:10   0.00   45.2    82    1.1   268     3.2   955.3    0.00 
 116    1:20   0.00   45.0    83    0.8   318     2.5   955.3    0.00 
 116    1:30   0.00   44.9    83    0.5   337     3.3   955.2    0.00 
 116    1:40   0.00   44.7    83    0.7   302     3.1   955.2    0.00 
 116    1:50   0.00   44.8    84    0.4   301     1.7   955.2    0.00 
 116    2:00   0.00   44.8    84    0.7   307     3.4   955.1    0.00 
 116    2:10   0.00   44.4    84    0.7   270     2.6   955.1    0.00 
 116    2:20   0.00   44.2    84    1.4   263     3.1   955.1    0.00 
 116    2:30   0.00   44.2    85    1.1   266     4.2   955.2    0.00 
 116    2:40   0.00   44.1    85    0.6   341     2.9   955.1    0.00 
 116    2:50   0.00   44.1    85    0.4    12     2.3   955.1    0.00 
 116    3:00   0.00   44.2    85    0.6     6     1.9   955.1    0.00 
 116    3:10   0.00   44.3    85    0.3    14     2.8   955.1    0.00 
 116    3:20   0.00   44.1    85    0.7   336     3.3   955.2    0.00 
 116    3:30   0.00   44.1    85    0.6   344     3.0   955.2    0.00 
 116    3:40   0.00   43.9    85    0.5   355     2.9   955.2    0.00 

Return to Hastings Natural History Reservation graphs page.


Western Regional Climate Center,wrcc@dri.edu